createdAt,value
2019-02-26T00:00:44.922Z,28.00
2019-02-26T00:03:11.429Z,17.17
2019-02-26T00:05:40.459Z,15.43
2019-02-26T00:08:09.547Z,11.35
2019-02-26T00:10:39.080Z,11.15
2019-02-26T00:13:08.155Z,10.95
2019-02-26T00:15:38.517Z,10.32
2019-02-26T00:18:11.482Z,11.18
2019-02-26T00:20:39.664Z,11.78
2019-02-26T00:23:09.394Z,12.47
2019-02-26T00:25:38.091Z,11.45
2019-02-26T00:28:06.761Z,19.75
2019-02-26T00:30:37.460Z,17.15
2019-02-26T00:33:05.859Z,17.35
2019-02-26T00:35:34.788Z,15.85
2019-02-26T00:38:03.442Z,15.15
2019-02-26T00:40:34.341Z,17.57
2019-02-26T00:43:04.781Z,17.30
2019-02-26T00:45:34.046Z,21.00
2019-02-26T00:48:03.898Z,21.95
2019-02-26T00:50:34.942Z,18.32
2019-02-26T00:53:03.985Z,18.67
2019-02-26T00:55:34.724Z,16.35
2019-02-26T00:58:05.734Z,15.60
2019-02-26T01:00:35.478Z,15.50
2019-02-26T01:03:05.905Z,15.32
2019-02-26T01:05:36.250Z,14.90
2019-02-26T01:08:07.471Z,17.12
2019-02-26T01:10:39.106Z,17.55
2019-02-26T01:13:07.421Z,17.87
2019-02-26T01:15:36.191Z,14.85
2019-02-26T01:18:05.642Z,13.75
2019-02-26T01:20:34.494Z,17.07
2019-02-26T01:23:03.503Z,17.52
2019-02-26T01:25:32.503Z,18.45
2019-02-26T01:28:01.429Z,16.05
2019-02-26T01:30:31.913Z,18.50
2019-02-26T01:33:03.235Z,16.27
2019-02-26T01:35:32.929Z,16.10
2019-02-26T01:38:01.555Z,17.52
2019-02-26T01:40:30.746Z,17.15
2019-02-26T01:43:02.601Z,15.75
2019-02-26T01:45:32.316Z,13.80
2019-02-26T01:48:00.611Z,14.85
2019-02-26T01:50:30.942Z,12.98
2019-02-26T01:53:01.073Z,13.25
2019-02-26T01:55:29.824Z,14.07
2019-02-26T01:57:59.274Z,12.75
2019-02-26T02:00:28.171Z,13.38
2019-02-26T02:02:57.224Z,14.47
2019-02-26T02:05:28.589Z,13.30
2019-02-26T02:07:56.595Z,13.60
2019-02-26T02:10:25.267Z,12.65
2019-02-26T02:12:57.363Z,13.68
2019-02-26T02:15:24.593Z,13.45
2019-02-26T02:17:56.639Z,13.93
2019-02-26T02:20:24.025Z,12.82
2019-02-26T02:22:52.705Z,13.00
2019-02-26T02:25:22.099Z,14.53
2019-02-26T02:27:54.169Z,12.78
2019-02-26T02:30:26.546Z,12.30
2019-02-26T02:32:55.056Z,13.30
2019-02-26T02:35:22.364Z,13.45
2019-02-26T02:37:53.720Z,13.80
2019-02-26T02:40:21.465Z,14.18
2019-02-26T02:42:50.473Z,14.43
2019-02-26T02:45:21.013Z,13.53
2019-02-26T02:47:54.665Z,13.90
2019-02-26T02:50:20.493Z,13.78
2019-02-26T02:52:50.790Z,14.47
2019-02-26T02:55:19.788Z,14.30
2019-02-26T02:57:52.378Z,14.18
2019-02-26T03:00:22.726Z,13.48
2019-02-26T03:02:52.856Z,14.25
2019-02-26T03:05:20.362Z,13.88
2019-02-26T03:07:51.646Z,13.70
2019-02-26T03:10:19.725Z,13.58
2019-02-26T03:12:53.831Z,14.35
2019-02-26T03:15:21.207Z,13.40
2019-02-26T03:17:49.597Z,13.30
2019-02-26T03:20:18.422Z,13.85
2019-02-26T03:22:49.213Z,14.90
2019-02-26T03:25:20.935Z,13.45
2019-02-26T03:27:48.674Z,13.48
2019-02-26T03:30:26.295Z,13.90
2019-02-26T03:32:55.811Z,12.65
2019-02-26T03:35:23.068Z,11.83
2019-02-26T03:37:52.380Z,11.80
2019-02-26T03:40:24.187Z,12.63
2019-02-26T03:42:51.508Z,12.30
2019-02-26T03:45:23.853Z,13.98
2019-02-26T03:47:50.887Z,13.43
2019-02-26T03:50:19.703Z,14.18
2019-02-26T03:52:48.721Z,15.00
2019-02-26T03:55:18.727Z,16.50
2019-02-26T03:57:53.286Z,15.18
2019-02-26T04:00:20.348Z,15.25
2019-02-26T04:02:51.824Z,14.70
2019-02-26T04:05:20.471Z,15.00
2019-02-26T04:07:52.294Z,16.23
2019-02-26T04:10:19.602Z,14.40
2019-02-26T04:12:51.831Z,16.40
2019-02-26T04:15:18.851Z,22.80
2019-02-26T04:17:47.637Z,23.15
2019-02-26T04:20:17.033Z,22.25
2019-02-26T04:22:48.316Z,27.25
2019-02-26T04:25:38.047Z,25.35
2019-02-26T04:28:37.058Z,22.07
2019-02-26T04:31:47.110Z,16.80
2019-02-26T04:34:40.114Z,16.80
2019-02-26T04:37:30.713Z,18.07
2019-02-26T04:40:40.996Z,17.57
2019-02-26T04:43:34.121Z,14.85
2019-02-26T04:46:31.587Z,15.78
2019-02-26T04:48:59.595Z,16.57
2019-02-26T04:51:28.276Z,16.82
2019-02-26T04:53:59.536Z,15.00
2019-02-26T04:56:31.314Z,15.75
2019-02-26T04:58:58.814Z,18.40
2019-02-26T05:01:27.745Z,17.87
2019-02-26T05:03:56.433Z,18.12
2019-02-26T05:06:25.329Z,17.48
2019-02-26T05:08:56.866Z,19.15
2019-02-26T05:11:31.354Z,15.93
2019-02-26T05:13:55.763Z,15.23
2019-02-26T05:16:26.678Z,16.15
2019-02-26T05:18:57.910Z,15.63
2019-02-26T05:21:27.065Z,16.35
2019-02-26T05:23:57.650Z,15.83
2019-02-26T05:26:26.251Z,12.93
2019-02-26T05:28:55.239Z,13.13
2019-02-26T05:31:24.091Z,12.55
2019-02-26T05:33:55.321Z,13.22
2019-02-26T05:36:23.166Z,13.48
2019-02-26T05:38:54.671Z,14.15
2019-02-26T05:41:22.751Z,14.35
2019-02-26T05:43:55.312Z,15.20
2019-02-26T05:46:24.560Z,16.48
2019-02-26T05:48:52.336Z,16.25
2019-02-26T05:51:21.630Z,16.50
2019-02-26T05:53:50.506Z,16.87
2019-02-26T05:56:20.745Z,17.30
2019-02-26T05:58:49.591Z,19.82
2019-02-26T06:01:19.339Z,23.27
2019-02-26T06:03:49.701Z,28.02
2019-02-26T06:06:19.290Z,27.60
2019-02-26T06:08:47.973Z,28.45
2019-02-26T06:11:17.153Z,28.15
2019-02-26T06:13:46.154Z,29.77
2019-02-26T06:16:15.155Z,26.17
2019-02-26T06:18:46.524Z,20.72
2019-02-26T06:21:16.530Z,18.23
2019-02-26T06:23:54.138Z,17.48
2019-02-26T06:26:22.878Z,19.00
2019-02-26T06:28:53.033Z,21.15
2019-02-26T06:31:24.974Z,26.00
2019-02-26T06:33:53.763Z,25.68
2019-02-26T06:36:23.478Z,24.82
2019-02-26T06:38:54.078Z,25.88
2019-02-26T06:41:23.822Z,26.10
2019-02-26T06:43:55.077Z,25.85
2019-02-26T06:46:26.236Z,25.70
2019-02-26T06:48:54.555Z,24.82
2019-02-26T06:51:24.326Z,25.30
2019-02-26T06:53:54.796Z,23.77
2019-02-26T06:56:24.186Z,22.62
2019-02-26T06:58:53.346Z,28.05
2019-02-26T07:01:22.247Z,21.48
2019-02-26T07:03:51.170Z,22.40
2019-02-26T07:06:22.782Z,25.80
2019-02-26T07:08:51.175Z,24.37
2019-02-26T07:11:21.147Z,24.87
2019-02-26T07:13:49.907Z,27.45
2019-02-26T07:16:20.616Z,34.83
2019-02-26T07:18:49.446Z,70.45
2019-02-26T07:21:18.232Z,41.05
2019-02-26T07:23:47.021Z,30.35
2019-02-26T07:26:16.628Z,22.73
2019-02-26T07:28:48.694Z,20.75
2019-02-26T07:31:17.789Z,21.85
2019-02-26T07:33:46.471Z,18.65
2019-02-26T07:36:16.156Z,19.35
2019-02-26T07:38:48.545Z,20.40
2019-02-26T07:41:18.848Z,25.52
2019-02-26T07:43:49.304Z,21.95
2019-02-26T07:46:19.287Z,17.10
2019-02-26T07:48:48.836Z,14.30
2019-02-26T07:51:19.109Z,14.25
2019-02-26T07:53:49.310Z,14.35
2019-02-26T07:56:18.278Z,19.37
2019-02-26T07:58:47.510Z,15.78
2019-02-26T08:01:16.455Z,15.30
2019-02-26T08:03:46.999Z,15.10
2019-02-26T08:06:15.883Z,15.03
2019-02-26T08:08:46.623Z,16.52
2019-02-26T08:11:15.022Z,15.00
2019-02-26T08:13:43.672Z,14.80
2019-02-26T08:16:12.327Z,15.18
2019-02-26T08:18:41.421Z,14.47
2019-02-26T08:21:10.397Z,14.78
2019-02-26T08:23:41.233Z,13.83
2019-02-26T08:26:10.034Z,14.25
2019-02-26T08:28:41.406Z,14.98
2019-02-26T08:31:13.334Z,15.50
2019-02-26T08:33:40.077Z,14.68
2019-02-26T08:36:08.729Z,14.43
2019-02-26T08:38:38.060Z,15.00
2019-02-26T08:41:06.744Z,15.80
2019-02-26T08:43:35.415Z,15.00
2019-02-26T08:46:04.169Z,15.63
2019-02-26T08:48:32.854Z,15.58
2019-02-26T08:51:05.428Z,14.25
2019-02-26T08:53:32.199Z,18.30
2019-02-26T08:56:03.779Z,16.42
2019-02-26T08:58:31.597Z,17.40
2019-02-26T09:01:00.261Z,16.67
2019-02-26T09:03:28.943Z,21.40
2019-02-26T09:06:10.189Z,16.02
2019-02-26T09:08:30.179Z,18.55
2019-02-26T09:11:00.724Z,18.48
2019-02-26T09:13:30.789Z,18.75
2019-02-26T09:16:01.068Z,18.80
2019-02-26T09:18:31.499Z,20.95
2019-02-26T09:21:01.076Z,20.48
2019-02-26T09:23:30.548Z,18.62
2019-02-26T09:26:02.582Z,20.35
2019-02-26T09:28:32.125Z,19.25
2019-02-26T09:31:01.843Z,19.27
2019-02-26T09:33:33.031Z,20.37
2019-02-26T09:36:01.672Z,20.80
2019-02-26T09:38:31.769Z,19.95
2019-02-26T09:41:00.720Z,19.52
2019-02-26T09:43:29.403Z,19.20
2019-02-26T09:45:58.071Z,18.00
2019-02-26T09:48:26.757Z,17.67
2019-02-26T09:50:55.461Z,18.25
2019-02-26T09:53:24.459Z,17.35
2019-02-26T09:55:53.132Z,17.70
2019-02-26T09:58:23.389Z,17.15
2019-02-26T10:00:54.019Z,17.45
2019-02-26T10:03:23.189Z,17.05
2019-02-26T10:05:53.254Z,16.48
2019-02-26T10:08:24.803Z,17.25
2019-02-26T10:10:55.006Z,17.77
2019-02-26T10:13:25.198Z,16.95
2019-02-26T10:15:56.292Z,17.62
2019-02-26T10:18:25.686Z,17.92
2019-02-26T10:20:55.659Z,18.82
2019-02-26T10:23:26.262Z,17.52
2019-02-26T10:25:57.505Z,17.77
2019-02-26T10:28:25.115Z,18.20
2019-02-26T10:30:55.025Z,18.37
2019-02-26T10:33:24.602Z,18.07
2019-02-26T10:35:53.289Z,17.75
2019-02-26T10:38:24.079Z,19.12
2019-02-26T10:40:56.205Z,18.92
2019-02-26T10:43:23.037Z,18.40
2019-02-26T10:45:54.786Z,18.20
2019-02-26T10:48:25.125Z,15.43
2019-02-26T10:50:53.730Z,14.98
2019-02-26T10:53:22.776Z,16.82
2019-02-26T10:55:51.856Z,17.75
2019-02-26T10:58:20.515Z,16.97
2019-02-26T11:00:55.296Z,18.37
2019-02-26T11:03:24.317Z,17.45
2019-02-26T11:05:53.277Z,17.67
2019-02-26T11:08:26.179Z,18.17
2019-02-26T11:10:52.602Z,18.60
2019-02-26T11:13:24.917Z,17.00
2019-02-26T11:15:53.969Z,19.15
2019-02-26T11:18:23.396Z,19.62
2019-02-26T11:20:55.279Z,18.23
2019-02-26T11:23:30.416Z,17.35
2019-02-26T11:25:53.570Z,18.57
2019-02-26T11:28:22.252Z,19.82
2019-02-26T11:30:54.017Z,18.42
2019-02-26T11:33:21.678Z,19.05
2019-02-26T11:35:51.474Z,19.17
2019-02-26T11:38:22.154Z,17.82
2019-02-26T11:40:50.879Z,18.25
2019-02-26T11:43:22.928Z,18.45
2019-02-26T11:45:49.997Z,18.32
2019-02-26T11:48:20.674Z,17.45
2019-02-26T11:50:49.334Z,18.60
2019-02-26T11:53:18.001Z,17.37
2019-02-26T11:55:49.354Z,16.95
2019-02-26T11:58:19.882Z,17.40
2019-02-26T12:00:57.363Z,17.57
2019-02-26T12:03:29.753Z,16.82
2019-02-26T12:06:00.567Z,17.25
2019-02-26T12:08:27.872Z,16.70
2019-02-26T12:11:01.040Z,17.23
2019-02-26T12:13:27.780Z,17.37
2019-02-26T12:15:56.822Z,17.42
2019-02-26T12:18:25.805Z,15.48
2019-02-26T12:20:54.801Z,17.90
2019-02-26T12:23:23.906Z,17.82
2019-02-26T12:25:55.349Z,16.73
2019-02-26T12:28:25.184Z,18.25
2019-02-26T12:30:53.457Z,16.77
2019-02-26T12:33:23.335Z,17.23
2019-02-26T12:35:52.275Z,18.75
2019-02-26T12:38:21.480Z,18.40
2019-02-26T12:40:53.409Z,18.67
2019-02-26T12:43:21.171Z,17.98
2019-02-26T12:45:51.446Z,18.85
2019-02-26T12:48:22.764Z,17.48
2019-02-26T12:50:52.142Z,16.90
2019-02-26T12:53:23.553Z,16.60
2019-02-26T12:55:51.503Z,17.67
2019-02-26T12:58:21.396Z,16.75
2019-02-26T13:00:50.825Z,17.67
2019-02-26T13:03:22.632Z,16.70
2019-02-26T13:05:51.740Z,18.33
2019-02-26T13:08:24.120Z,18.00
2019-02-26T13:10:57.746Z,17.48
2019-02-26T13:13:22.433Z,16.97
2019-02-26T13:15:51.359Z,17.25
2019-02-26T13:18:20.055Z,18.37
2019-02-26T13:20:52.349Z,18.48
2019-02-26T13:23:20.587Z,17.42
2019-02-26T13:25:51.141Z,18.20
2019-02-26T13:28:19.846Z,17.82
2019-02-26T13:30:48.544Z,18.00
2019-02-26T13:33:18.875Z,18.20
2019-02-26T13:35:52.232Z,18.12
2019-02-26T13:38:24.527Z,18.85
2019-02-26T13:40:49.094Z,17.02
2019-02-26T13:43:18.127Z,17.92
2019-02-26T13:45:47.398Z,17.50
2019-02-26T13:48:16.959Z,17.50
2019-02-26T13:50:45.701Z,17.55
2019-02-26T13:53:14.402Z,17.10
2019-02-26T13:55:43.055Z,16.67
2019-02-26T13:58:12.286Z,18.07
2019-02-26T14:00:41.447Z,17.90
2019-02-26T14:03:10.130Z,18.50
2019-02-26T14:05:38.798Z,18.50
2019-02-26T14:08:08.063Z,17.37
2019-02-26T14:10:37.244Z,17.02
2019-02-26T14:13:06.480Z,17.73
2019-02-26T14:15:35.520Z,17.07
2019-02-26T14:18:04.344Z,17.57
2019-02-26T14:20:33.313Z,16.90
2019-02-26T14:23:01.998Z,16.85
2019-02-26T14:25:30.663Z,14.80
2019-02-26T14:27:59.767Z,14.00
2019-02-26T14:30:28.860Z,13.30
2019-02-26T14:32:57.848Z,13.38
2019-02-26T14:35:26.593Z,13.93
2019-02-26T14:37:55.858Z,13.03
2019-02-26T14:40:24.509Z,15.13
2019-02-26T14:42:53.187Z,12.53
2019-02-26T14:45:21.948Z,12.10
2019-02-26T14:47:51.019Z,12.15
2019-02-26T14:50:19.907Z,10.30
2019-02-26T14:52:48.649Z,9.78
2019-02-26T14:55:17.458Z,9.38
2019-02-26T14:57:46.813Z,9.35
2019-02-26T15:00:22.521Z,8.95
2019-02-26T15:02:51.577Z,9.78
2019-02-26T15:05:20.394Z,10.60
2019-02-26T15:07:49.383Z,10.93
2019-02-26T15:10:18.142Z,10.43
2019-02-26T15:12:47.120Z,12.63
2019-02-26T15:15:16.233Z,12.20
2019-02-26T15:17:45.256Z,13.93
2019-02-26T15:20:15.556Z,13.85
2019-02-26T15:22:44.219Z,14.13
2019-02-26T15:25:15.860Z,13.70
2019-02-26T15:27:44.530Z,12.88
2019-02-26T15:30:14.638Z,14.10
2019-02-26T15:32:43.793Z,14.50
2019-02-26T15:35:13.055Z,14.38
2019-02-26T15:37:41.902Z,15.08
2019-02-26T15:40:11.440Z,12.68
2019-02-26T15:42:41.640Z,11.65
2019-02-26T15:45:16.087Z,11.18
2019-02-26T15:47:47.092Z,14.40
2019-02-26T15:50:15.979Z,14.05
2019-02-26T15:52:44.749Z,15.98
2019-02-26T15:55:18.384Z,16.23
2019-02-26T15:57:47.040Z,16.57
2019-02-26T16:00:18.469Z,16.80
2019-02-26T16:02:47.965Z,17.67
2019-02-26T16:05:19.007Z,16.07
2019-02-26T16:07:47.659Z,16.20
2019-02-26T16:10:19.488Z,14.18
2019-02-26T16:12:49.124Z,14.95
2019-02-26T16:15:18.226Z,13.78
2019-02-26T16:17:47.128Z,14.87
2019-02-26T16:20:17.450Z,14.25
2019-02-26T16:22:46.843Z,14.75
2019-02-26T16:25:15.604Z,15.18
2019-02-26T16:27:44.253Z,14.50
2019-02-26T16:30:16.085Z,15.15
2019-02-26T16:35:15.030Z,14.43
2019-02-26T16:37:43.716Z,15.20
2019-02-26T16:40:12.973Z,15.30
2019-02-26T16:42:44.361Z,17.55
2019-02-26T16:45:14.829Z,17.70
2019-02-26T16:47:45.979Z,16.27
2019-02-26T16:50:15.581Z,19.40
2019-02-26T16:52:44.317Z,17.90
2019-02-26T16:55:14.140Z,19.40
2019-02-26T16:57:43.836Z,21.30
2019-02-26T17:00:15.651Z,16.80
2019-02-26T17:02:44.981Z,17.55
2019-02-26T17:05:14.973Z,19.85
2019-02-26T17:07:43.852Z,20.37
2019-02-26T17:10:14.915Z,19.00
2019-02-26T17:12:45.228Z,18.55
2019-02-26T17:15:17.915Z,18.37
2019-02-26T17:17:46.893Z,16.27
2019-02-26T17:20:15.648Z,16.35
2019-02-26T17:22:45.010Z,15.48
2019-02-26T17:25:13.844Z,15.85
2019-02-26T17:27:42.782Z,16.00
2019-02-26T17:30:12.167Z,16.60
2019-02-26T17:32:40.846Z,15.35
2019-02-26T17:35:09.755Z,16.77
2019-02-26T17:37:41.450Z,15.65
2019-02-26T17:40:10.284Z,15.90
2019-02-26T17:42:38.938Z,15.98
2019-02-26T17:45:09.903Z,19.37
2019-02-26T17:47:38.805Z,20.77
2019-02-26T17:50:12.025Z,19.45
2019-02-26T17:52:41.054Z,19.92
2019-02-26T17:55:10.147Z,16.50
2019-02-26T17:57:39.193Z,14.58
2019-02-26T18:00:10.652Z,17.32
2019-02-26T18:02:39.337Z,21.73
2019-02-26T18:05:10.656Z,20.23
2019-02-26T18:07:39.102Z,17.33
2019-02-26T18:10:13.025Z,15.40
2019-02-26T18:12:42.632Z,13.75
2019-02-26T18:15:16.725Z,17.52
2019-02-26T18:17:43.593Z,17.57
2019-02-26T18:20:14.454Z,15.78
2019-02-26T18:22:43.218Z,15.53
2019-02-26T18:25:12.939Z,13.68
2019-02-26T18:27:41.848Z,14.03
2019-02-26T18:30:15.146Z,12.60
2019-02-26T18:32:49.927Z,12.10
2019-02-26T18:35:14.285Z,12.25
2019-02-26T18:37:46.397Z,14.00
2019-02-26T18:40:14.464Z,14.60
2019-02-26T18:42:43.178Z,13.32
2019-02-26T18:45:19.999Z,13.25
2019-02-26T18:47:48.691Z,12.85
2019-02-26T18:50:17.610Z,13.13
2019-02-26T18:52:46.366Z,15.32
2019-02-26T18:55:16.014Z,22.05
2019-02-26T18:57:45.011Z,27.62
2019-02-26T19:00:17.198Z,28.40
2019-02-26T19:02:45.972Z,18.37
2019-02-26T19:05:14.751Z,19.48
2019-02-26T19:07:43.400Z,18.15
2019-02-26T19:10:17.514Z,23.25
2019-02-26T19:12:43.844Z,19.67
2019-02-26T19:15:14.811Z,18.05
2019-02-26T19:17:45.981Z,22.02
2019-02-26T19:20:15.592Z,24.37
2019-02-26T19:22:44.825Z,34.10
2019-02-26T19:25:13.661Z,24.07
2019-02-26T19:27:42.344Z,42.95
2019-02-26T19:30:13.589Z,27.35
2019-02-26T19:32:42.591Z,24.18
2019-02-26T19:35:12.496Z,23.67
2019-02-26T19:37:41.496Z,24.47
2019-02-26T19:40:12.266Z,22.93
2019-02-26T19:42:42.594Z,20.37
2019-02-26T19:45:12.004Z,21.30
2019-02-26T19:47:41.081Z,21.35
2019-02-26T19:50:11.842Z,19.82
2019-02-26T19:52:41.122Z,21.35
2019-02-26T19:55:15.656Z,24.30
2019-02-26T19:57:43.947Z,24.00
2019-02-26T20:00:12.972Z,25.50
2019-02-26T20:02:43.200Z,27.30
2019-02-26T20:05:12.302Z,31.55
2019-02-26T20:07:41.691Z,30.55
2019-02-26T20:10:14.746Z,24.27
2019-02-26T20:12:41.824Z,21.80
2019-02-26T20:15:13.191Z,23.57
2019-02-26T20:17:42.432Z,20.17
2019-02-26T20:20:12.182Z,23.75
2019-02-26T20:22:41.127Z,24.32
2019-02-26T20:25:12.527Z,24.32
2019-02-26T20:27:41.387Z,24.37
2019-02-26T20:30:12.373Z,24.27
2019-02-26T20:32:41.858Z,27.20
2019-02-26T20:35:11.944Z,29.48
2019-02-26T20:37:41.588Z,26.75
2019-02-26T20:40:16.125Z,28.60
2019-02-26T20:42:43.169Z,32.53
2019-02-26T20:45:17.837Z,29.15
2019-02-26T20:47:43.828Z,28.62
2019-02-26T20:50:12.858Z,29.10
2019-02-26T20:52:41.623Z,28.90
2019-02-26T20:55:12.207Z,27.15
2019-02-26T20:57:40.895Z,24.92
2019-02-26T21:00:12.514Z,26.12
2019-02-26T21:02:41.442Z,20.23
2019-02-26T21:05:10.354Z,19.10
2019-02-26T21:07:39.185Z,17.50
2019-02-26T21:10:08.507Z,18.52
2019-02-26T21:12:37.199Z,17.90
2019-02-26T21:15:08.259Z,18.62
2019-02-26T21:17:37.185Z,18.67
2019-02-26T21:20:07.762Z,17.70
2019-02-26T21:22:37.299Z,17.70
2019-02-26T21:25:08.513Z,18.90
2019-02-26T21:27:36.821Z,18.17
2019-02-26T21:30:06.030Z,18.52
2019-02-26T21:32:34.982Z,17.45
2019-02-26T21:35:04.046Z,30.60
2019-02-26T21:37:33.363Z,22.70
2019-02-26T21:40:02.234Z,26.97
2019-02-26T21:42:30.910Z,17.55
2019-02-26T21:44:59.589Z,20.85
2019-02-26T21:47:28.590Z,21.05
2019-02-26T21:49:57.280Z,19.48
2019-02-26T21:52:25.961Z,21.90
2019-02-26T21:54:57.737Z,23.87
2019-02-26T21:57:25.050Z,24.80
2019-02-26T21:59:54.811Z,23.22
2019-02-26T22:02:23.668Z,22.07
2019-02-26T22:04:52.847Z,22.95
2019-02-26T22:07:21.801Z,21.70
2019-02-26T22:09:52.107Z,20.25
2019-02-26T22:12:21.853Z,27.65
2019-02-26T22:14:51.400Z,24.52
2019-02-26T22:17:20.303Z,24.27
2019-02-26T22:19:49.012Z,23.67
2019-02-26T22:22:17.734Z,23.98
2019-02-26T22:24:46.428Z,21.97
2019-02-26T22:27:15.124Z,24.30
2019-02-26T22:29:47.965Z,20.60
2019-02-26T22:32:14.459Z,18.65
2019-02-26T22:34:43.155Z,17.67
2019-02-26T22:37:11.846Z,16.93
2019-02-26T22:39:40.789Z,16.37
2019-02-26T22:42:09.454Z,17.17
2019-02-26T22:44:38.395Z,16.80
2019-02-26T22:47:07.598Z,15.40
2019-02-26T22:49:36.583Z,15.58
2019-02-26T22:52:05.581Z,16.48
2019-02-26T22:57:09.041Z,14.70
2019-02-26T22:59:38.583Z,15.72
2019-02-26T23:02:09.268Z,15.63
2019-02-26T23:04:38.028Z,15.43
2019-02-26T23:07:06.768Z,15.65
2019-02-26T23:09:35.532Z,16.35
2019-02-26T23:12:05.048Z,15.58
2019-02-26T23:14:35.910Z,17.23
2019-02-26T23:17:05.763Z,16.80
2019-02-26T23:19:36.681Z,16.12
2019-02-26T23:22:04.995Z,16.95
2019-02-26T23:24:34.082Z,16.75
2019-02-26T23:27:03.520Z,17.42
2019-02-26T23:29:32.520Z,17.30
2019-02-26T23:32:01.194Z,17.27
2019-02-26T23:34:30.113Z,18.37
2019-02-26T23:37:00.968Z,17.82
2019-02-26T23:39:29.617Z,18.15
2019-02-26T23:41:58.428Z,18.37
2019-02-26T23:44:27.327Z,18.30
2019-02-26T23:46:56.008Z,17.02
2019-02-26T23:49:24.966Z,18.48
2019-02-26T23:51:54.577Z,18.10
2019-02-26T23:54:23.776Z,17.12
2019-02-26T23:56:54.790Z,18.50
2019-02-26T23:59:23.470Z,19.17
